sensor_id;sensor_type;location;lat;lon;timestamp;temperature;humidity
11615;DHT22;5863;52.832;4.758;2022-10-03T00:01:16;13.70;99.90
11615;DHT22;5863;52.832;4.758;2022-10-03T00:03:49;13.70;99.90
11615;DHT22;5863;52.832;4.758;2022-10-03T00:06:26;13.70;99.90
11615;DHT22;5863;52.832;4.758;2022-10-03T00:09:13;13.70;99.90
11615;DHT22;5863;52.832;4.758;2022-10-03T00:11:51;13.70;99.90
11615;DHT22;5863;52.832;4.758;2022-10-03T00:14:28;13.70;99.90
11615;DHT22;5863;52.832;4.758;2022-10-03T00:17:01;13.70;99.90
11615;DHT22;5863;52.832;4.758;2022-10-03T00:19:37;13.60;99.90
11615;DHT22;5863;52.832;4.758;2022-10-03T00:22:15;13.60;99.90
11615;DHT22;5863;52.832;4.758;2022-10-03T00:24:54;13.60;99.90
11615;DHT22;5863;52.832;4.758;2022-10-03T00:27:29;13.60;99.90
11615;DHT22;5863;52.832;4.758;2022-10-03T00:30:11;13.60;99.90
11615;DHT22;5863;52.832;4.758;2022-10-03T00:32:57;13.50;99.90
11615;DHT22;5863;52.832;4.758;2022-10-03T00:35:37;13.50;99.90
11615;DHT22;5863;52.832;4.758;2022-10-03T00:38:21;13.50;99.90
11615;DHT22;5863;52.832;4.758;2022-10-03T00:41:34;13.50;99.90
11615;DHT22;5863;52.832;4.758;2022-10-03T00:47:29;13.50;99.90
11615;DHT22;5863;52.832;4.758;2022-10-03T00:50:15;13.50;99.90
11615;DHT22;5863;52.832;4.758;2022-10-03T00:52:54;13.50;99.90
11615;DHT22;5863;52.832;4.758;2022-10-03T00:55:37;13.40;99.90
11615;DHT22;5863;52.832;4.758;2022-10-03T00:58:48;13.40;99.90
11615;DHT22;5863;52.832;4.758;2022-10-03T01:01:27;13.40;99.90
11615;DHT22;5863;52.832;4.758;2022-10-03T01:04:08;13.40;99.90
11615;DHT22;5863;52.832;4.758;2022-10-03T01:06:45;13.40;99.90
11615;DHT22;5863;52.832;4.758;2022-10-03T01:09:22;13.40;99.90
11615;DHT22;5863;52.832;4.758;2022-10-03T01:12:20;13.40;99.90
11615;DHT22;5863;52.832;4.758;2022-10-03T01:15:05;13.30;99.90
11615;DHT22;5863;52.832;4.758;2022-10-03T01:17:43;13.40;99.90
11615;DHT22;5863;52.832;4.758;2022-10-03T01:20:26;13.30;99.90
11615;DHT22;5863;52.832;4.758;2022-10-03T01:26:13;13.30;99.90
11615;DHT22;5863;52.832;4.758;2022-10-03T01:28:51;13.30;99.90
11615;DHT22;5863;52.832;4.758;2022-10-03T01:31:43;13.30;99.90
11615;DHT22;5863;52.832;4.758;2022-10-03T01:34:17;13.40;99.90
11615;DHT22;5863;52.832;4.758;2022-10-03T01:36:53;13.40;99.90
11615;DHT22;5863;52.832;4.758;2022-10-03T01:39:27;13.40;99.90
11615;DHT22;5863;52.832;4.758;2022-10-03T01:42:02;13.40;99.90
11615;DHT22;5863;52.832;4.758;2022-10-03T01:44:39;13.50;99.90
11615;DHT22;5863;52.832;4.758;2022-10-03T01:47:16;13.50;99.90
11615;DHT22;5863;52.832;4.758;2022-10-03T01:49:50;13.50;99.90
11615;DHT22;5863;52.832;4.758;2022-10-03T01:52:30;13.50;99.90
11615;DHT22;5863;52.832;4.758;2022-10-03T01:55:03;13.50;99.90
11615;DHT22;5863;52.832;4.758;2022-10-03T01:57:37;13.40;99.90
11615;DHT22;5863;52.832;4.758;2022-10-03T02:00:12;13.40;99.90
11615;DHT22;5863;52.832;4.758;2022-10-03T02:02:43;13.50;99.90
11615;DHT22;5863;52.832;4.758;2022-10-03T02:05:16;13.40;99.90
11615;DHT22;5863;52.832;4.758;2022-10-03T02:07:49;13.50;99.90
11615;DHT22;5863;52.832;4.758;2022-10-03T02:10:27;13.40;99.90
11615;DHT22;5863;52.832;4.758;2022-10-03T02:13:03;13.40;99.90
11615;DHT22;5863;52.832;4.758;2022-10-03T02:15:38;13.40;99.90
11615;DHT22;5863;52.832;4.758;2022-10-03T02:18:12;13.40;99.90
11615;DHT22;5863;52.832;4.758;2022-10-03T02:20:44;13.40;99.90
11615;DHT22;5863;52.832;4.758;2022-10-03T02:23:25;13.40;99.90
11615;DHT22;5863;52.832;4.758;2022-10-03T02:29:08;13.40;99.90
11615;DHT22;5863;52.832;4.758;2022-10-03T02:35:07;13.40;99.90
11615;DHT22;5863;52.832;4.758;2022-10-03T02:37:54;13.40;99.90
11615;DHT22;5863;52.832;4.758;2022-10-03T02:40:37;13.30;99.90
11615;DHT22;5863;52.832;4.758;2022-10-03T02:52:57;13.40;99.90
11615;DHT22;5863;52.832;4.758;2022-10-03T02:55:42;13.30;99.90
11615;DHT22;5863;52.832;4.758;2022-10-03T03:01:44;13.30;99.90
11615;DHT22;5863;52.832;4.758;2022-10-03T03:07:31;13.20;99.90
11615;DHT22;5863;52.832;4.758;2022-10-03T03:10:27;13.30;99.90
11615;DHT22;5863;52.832;4.758;2022-10-03T03:19:14;13.30;99.90
11615;DHT22;5863;52.832;4.758;2022-10-03T03:21:50;13.40;99.90
11615;DHT22;5863;52.832;4.758;2022-10-03T03:24:37;13.40;99.90
11615;DHT22;5863;52.832;4.758;2022-10-03T03:27:35;13.40;99.90
11615;DHT22;5863;52.832;4.758;2022-10-03T03:30:07;13.40;99.90
11615;DHT22;5863;52.832;4.758;2022-10-03T03:35:40;13.40;99.90
11615;DHT22;5863;52.832;4.758;2022-10-03T03:38:24;13.50;99.90
11615;DHT22;5863;52.832;4.758;2022-10-03T03:41:08;13.50;99.90
11615;DHT22;5863;52.832;4.758;2022-10-03T03:43:56;13.50;99.90
11615;DHT22;5863;52.832;4.758;2022-10-03T03:46:36;13.50;99.90
11615;DHT22;5863;52.832;4.758;2022-10-03T03:49:25;13.50;99.90
11615;DHT22;5863;52.832;4.758;2022-10-03T03:52:06;13.50;99.90
11615;DHT22;5863;52.832;4.758;2022-10-03T03:54:51;13.60;99.90
11615;DHT22;5863;52.832;4.758;2022-10-03T04:00:29;13.60;99.90
11615;DHT22;5863;52.832;4.758;2022-10-03T04:03:11;13.60;99.90
11615;DHT22;5863;52.832;4.758;2022-10-03T04:06:00;13.60;99.90
11615;DHT22;5863;52.832;4.758;2022-10-03T04:08:51;13.60;99.90
11615;DHT22;5863;52.832;4.758;2022-10-03T04:11:35;13.70;99.90
11615;DHT22;5863;52.832;4.758;2022-10-03T04:14:37;13.70;99.90
11615;DHT22;5863;52.832;4.758;2022-10-03T04:17:18;13.70;99.90
11615;DHT22;5863;52.832;4.758;2022-10-03T04:20:13;13.70;99.90
11615;DHT22;5863;52.832;4.758;2022-10-03T04:23:01;13.70;99.90
11615;DHT22;5863;52.832;4.758;2022-10-03T04:25:49;13.70;99.90
11615;DHT22;5863;52.832;4.758;2022-10-03T04:28:40;13.70;99.90
11615;DHT22;5863;52.832;4.758;2022-10-03T04:31:23;13.80;99.90
11615;DHT22;5863;52.832;4.758;2022-10-03T04:34:04;13.80;99.90
11615;DHT22;5863;52.832;4.758;2022-10-03T04:36:55;13.80;99.90
11615;DHT22;5863;52.832;4.758;2022-10-03T04:39:33;13.80;99.90
11615;DHT22;5863;52.832;4.758;2022-10-03T04:42:12;13.80;99.90
11615;DHT22;5863;52.832;4.758;2022-10-03T04:45:06;13.80;99.90
11615;DHT22;5863;52.832;4.758;2022-10-03T04:47:42;13.80;99.90
11615;DHT22;5863;52.832;4.758;2022-10-03T04:50:24;13.80;99.90
11615;DHT22;5863;52.832;4.758;2022-10-03T04:53:05;13.80;99.90
11615;DHT22;5863;52.832;4.758;2022-10-03T04:55:40;13.70;99.90
11615;DHT22;5863;52.832;4.758;2022-10-03T04:58:20;13.70;99.90
11615;DHT22;5863;52.832;4.758;2022-10-03T05:00:56;13.70;99.90
11615;DHT22;5863;52.832;4.758;2022-10-03T05:06:57;13.70;99.90
11615;DHT22;5863;52.832;4.758;2022-10-03T05:09:32;13.60;99.90
11615;DHT22;5863;52.832;4.758;2022-10-03T05:12:37;13.60;99.90
11615;DHT22;5863;52.832;4.758;2022-10-03T05:15:18;13.60;99.90
11615;DHT22;5863;52.832;4.758;2022-10-03T05:17:54;13.60;99.90
11615;DHT22;5863;52.832;4.758;2022-10-03T05:20:36;13.50;99.90
11615;DHT22;5863;52.832;4.758;2022-10-03T05:23:33;13.50;99.90
11615;DHT22;5863;52.832;4.758;2022-10-03T05:26:10;13.50;99.90
11615;DHT22;5863;52.832;4.758;2022-10-03T05:28:44;13.40;99.90
11615;DHT22;5863;52.832;4.758;2022-10-03T05:31:26;13.40;99.90
11615;DHT22;5863;52.832;4.758;2022-10-03T05:34:15;13.40;99.90
11615;DHT22;5863;52.832;4.758;2022-10-03T05:37:05;13.30;99.90
11615;DHT22;5863;52.832;4.758;2022-10-03T05:39:44;13.40;99.90
11615;DHT22;5863;52.832;4.758;2022-10-03T05:42:35;13.30;99.90
11615;DHT22;5863;52.832;4.758;2022-10-03T05:45:16;13.30;99.90
11615;DHT22;5863;52.832;4.758;2022-10-03T05:48:11;13.40;99.90
11615;DHT22;5863;52.832;4.758;2022-10-03T05:53:59;13.30;99.90
11615;DHT22;5863;52.832;4.758;2022-10-03T05:59:55;13.30;99.90
11615;DHT22;5863;52.832;4.758;2022-10-03T06:02:45;13.30;99.90
11615;DHT22;5863;52.832;4.758;2022-10-03T06:05:23;13.30;99.90
11615;DHT22;5863;52.832;4.758;2022-10-03T06:11:16;13.30;99.90
11615;DHT22;5863;52.832;4.758;2022-10-03T06:14:10;13.30;99.90
11615;DHT22;5863;52.832;4.758;2022-10-03T06:19:48;13.40;99.90
11615;DHT22;5863;52.832;4.758;2022-10-03T06:22:45;13.40;99.90
11615;DHT22;5863;52.832;4.758;2022-10-03T06:25:51;13.50;99.90
11615;DHT22;5863;52.832;4.758;2022-10-03T06:28:48;13.50;99.90
11615;DHT22;5863;52.832;4.758;2022-10-03T06:34:44;13.60;99.90
11615;DHT22;5863;52.832;4.758;2022-10-03T06:37:43;13.60;99.90
11615;DHT22;5863;52.832;4.758;2022-10-03T06:40:52;13.60;99.90
11615;DHT22;5863;52.832;4.758;2022-10-03T06:46:52;13.60;99.90
11615;DHT22;5863;52.832;4.758;2022-10-03T06:49:53;13.70;99.90
11615;DHT22;5863;52.832;4.758;2022-10-03T06:52:41;13.80;99.90
11615;DHT22;5863;52.832;4.758;2022-10-03T06:58:33;13.90;99.90
11615;DHT22;5863;52.832;4.758;2022-10-03T07:01:22;14.00;99.90
11615;DHT22;5863;52.832;4.758;2022-10-03T07:11:16;14.20;99.90
11615;DHT22;5863;52.832;4.758;2022-10-03T07:14:21;14.20;99.90
11615;DHT22;5863;52.832;4.758;2022-10-03T07:17:19;14.20;99.90
11615;DHT22;5863;52.832;4.758;2022-10-03T07:23:22;14.40;99.90
11615;DHT22;5863;52.832;4.758;2022-10-03T07:26:24;14.50;99.90
11615;DHT22;5863;52.832;4.758;2022-10-03T07:29:31;14.60;99.90
11615;DHT22;5863;52.832;4.758;2022-10-03T07:35:17;14.90;99.90
11615;DHT22;5863;52.832;4.758;2022-10-03T07:38:06;15.00;99.90
11615;DHT22;5863;52.832;4.758;2022-10-03T07:41:25;15.10;99.90
11615;DHT22;5863;52.832;4.758;2022-10-03T07:44:16;15.20;99.90
11615;DHT22;5863;52.832;4.758;2022-10-03T07:47:19;15.20;99.90
11615;DHT22;5863;52.832;4.758;2022-10-03T07:50:05;15.30;99.90
11615;DHT22;5863;52.832;4.758;2022-10-03T07:53:01;15.30;99.90
11615;DHT22;5863;52.832;4.758;2022-10-03T07:55:45;15.50;99.90
11615;DHT22;5863;52.832;4.758;2022-10-03T07:58:48;15.70;99.90
11615;DHT22;5863;52.832;4.758;2022-10-03T08:01:40;16.00;99.90
11615;DHT22;5863;52.832;4.758;2022-10-03T08:04:42;16.40;99.90
11615;DHT22;5863;52.832;4.758;2022-10-03T08:07:42;17.00;99.90
11615;DHT22;5863;52.832;4.758;2022-10-03T08:10:25;17.80;99.90
11615;DHT22;5863;52.832;4.758;2022-10-03T08:13:15;18.60;99.90
11615;DHT22;5863;52.832;4.758;2022-10-03T08:15:59;19.10;99.90
11615;DHT22;5863;52.832;4.758;2022-10-03T08:19:02;19.40;99.90
11615;DHT22;5863;52.832;4.758;2022-10-03T08:21:42;19.30;99.90
11615;DHT22;5863;52.832;4.758;2022-10-03T08:24:23;19.30;99.90
11615;DHT22;5863;52.832;4.758;2022-10-03T08:27:11;19.10;99.90
11615;DHT22;5863;52.832;4.758;2022-10-03T08:30:03;18.80;99.90
11615;DHT22;5863;52.832;4.758;2022-10-03T08:32:57;18.60;99.90
11615;DHT22;5863;52.832;4.758;2022-10-03T08:44:59;18.30;99.90
11615;DHT22;5863;52.832;4.758;2022-10-03T08:50:34;18.20;99.90
11615;DHT22;5863;52.832;4.758;2022-10-03T08:53:45;18.20;99.90
11615;DHT22;5863;52.832;4.758;2022-10-03T08:56:14;18.20;99.90
11615;DHT22;5863;52.832;4.758;2022-10-03T09:05:31;18.10;99.90
11615;DHT22;5863;52.832;4.758;2022-10-03T09:08:35;18.00;99.90
11615;DHT22;5863;52.832;4.758;2022-10-03T09:11:36;18.10;99.90
11615;DHT22;5863;52.832;4.758;2022-10-03T09:14:31;18.20;99.90
11615;DHT22;5863;52.832;4.758;2022-10-03T09:17:23;18.30;99.90
11615;DHT22;5863;52.832;4.758;2022-10-03T09:26:04;18.20;99.90
11615;DHT22;5863;52.832;4.758;2022-10-03T09:28:55;18.20;99.90
11615;DHT22;5863;52.832;4.758;2022-10-03T09:31:55;18.10;99.90
11615;DHT22;5863;52.832;4.758;2022-10-03T09:34:51;18.20;99.90
11615;DHT22;5863;52.832;4.758;2022-10-03T09:47:00;18.60;99.90
11615;DHT22;5863;52.832;4.758;2022-10-03T09:50:22;18.70;99.90
11615;DHT22;5863;52.832;4.758;2022-10-03T09:56:24;19.00;99.90
11615;DHT22;5863;52.832;4.758;2022-10-03T10:01:57;19.20;99.90
11615;DHT22;5863;52.832;4.758;2022-10-03T10:04:56;19.30;99.90
11615;DHT22;5863;52.832;4.758;2022-10-03T10:07:50;19.30;99.90
11615;DHT22;5863;52.832;4.758;2022-10-03T10:10:43;19.30;99.90
11615;DHT22;5863;52.832;4.758;2022-10-03T10:16:40;19.50;99.90
11615;DHT22;5863;52.832;4.758;2022-10-03T10:19:40;19.50;99.90
11615;DHT22;5863;52.832;4.758;2022-10-03T10:22:31;19.50;99.90
11615;DHT22;5863;52.832;4.758;2022-10-03T10:25:30;19.50;99.90
11615;DHT22;5863;52.832;4.758;2022-10-03T10:28:17;19.60;99.90
11615;DHT22;5863;52.832;4.758;2022-10-03T10:31:18;19.70;99.90
11615;DHT22;5863;52.832;4.758;2022-10-03T10:43:54;20.10;99.90
11615;DHT22;5863;52.832;4.758;2022-10-03T10:50:21;20.20;99.90
11615;DHT22;5863;52.832;4.758;2022-10-03T10:56:25;20.30;99.90
11615;DHT22;5863;52.832;4.758;2022-10-03T11:02:47;20.30;99.90
11615;DHT22;5863;52.832;4.758;2022-10-03T11:05:54;20.20;99.90
11615;DHT22;5863;52.832;4.758;2022-10-03T11:09:09;20.20;99.90
11615;DHT22;5863;52.832;4.758;2022-10-03T11:15:25;20.10;99.90
11615;DHT22;5863;52.832;4.758;2022-10-03T11:21:35;20.00;99.90
11615;DHT22;5863;52.832;4.758;2022-10-03T11:30:38;19.80;99.90
11615;DHT22;5863;52.832;4.758;2022-10-03T11:39:31;19.60;99.90
11615;DHT22;5863;52.832;4.758;2022-10-03T11:42:03;19.50;99.90
11615;DHT22;5863;52.832;4.758;2022-10-03T11:44:36;19.50;99.90
11615;DHT22;5863;52.832;4.758;2022-10-03T11:47:36;19.60;99.90
11615;DHT22;5863;52.832;4.758;2022-10-03T11:50:22;19.60;99.90
11615;DHT22;5863;52.832;4.758;2022-10-03T11:53:08;19.50;99.90
11615;DHT22;5863;52.832;4.758;2022-10-03T11:55:39;19.50;99.90
11615;DHT22;5863;52.832;4.758;2022-10-03T11:58:23;19.50;99.90
11615;DHT22;5863;52.832;4.758;2022-10-03T12:01:06;19.60;99.90
11615;DHT22;5863;52.832;4.758;2022-10-03T12:03:48;19.60;99.90
11615;DHT22;5863;52.832;4.758;2022-10-03T12:06:36;19.60;99.90
11615;DHT22;5863;52.832;4.758;2022-10-03T12:09:31;19.50;99.90
11615;DHT22;5863;52.832;4.758;2022-10-03T12:12:08;19.50;99.90
11615;DHT22;5863;52.832;4.758;2022-10-03T12:14:41;19.50;99.90
11615;DHT22;5863;52.832;4.758;2022-10-03T12:17:11;19.40;99.90
11615;DHT22;5863;52.832;4.758;2022-10-03T12:19:49;19.40;99.90
11615;DHT22;5863;52.832;4.758;2022-10-03T12:22:28;19.40;99.90
11615;DHT22;5863;52.832;4.758;2022-10-03T12:25:04;19.40;99.90
11615;DHT22;5863;52.832;4.758;2022-10-03T12:27:40;19.50;99.90
11615;DHT22;5863;52.832;4.758;2022-10-03T12:30:13;19.50;99.90
11615;DHT22;5863;52.832;4.758;2022-10-03T12:32:50;19.50;99.90
11615;DHT22;5863;52.832;4.758;2022-10-03T12:35:37;19.40;99.90
11615;DHT22;5863;52.832;4.758;2022-10-03T12:38:16;19.30;99.90
11615;DHT22;5863;52.832;4.758;2022-10-03T12:40:52;19.30;99.90
11615;DHT22;5863;52.832;4.758;2022-10-03T12:43:34;19.30;99.90
11615;DHT22;5863;52.832;4.758;2022-10-03T12:46:10;19.20;99.90
11615;DHT22;5863;52.832;4.758;2022-10-03T12:48:44;19.20;99.90
11615;DHT22;5863;52.832;4.758;2022-10-03T12:51:37;19.20;99.90
11615;DHT22;5863;52.832;4.758;2022-10-03T12:54:17;19.20;99.90
11615;DHT22;5863;52.832;4.758;2022-10-03T12:56:52;19.10;99.90
11615;DHT22;5863;52.832;4.758;2022-10-03T12:59:32;19.10;99.90
11615;DHT22;5863;52.832;4.758;2022-10-03T13:02:24;19.10;99.90
11615;DHT22;5863;52.832;4.758;2022-10-03T13:05:17;19.20;99.90
11615;DHT22;5863;52.832;4.758;2022-10-03T13:07:50;19.30;99.90
11615;DHT22;5863;52.832;4.758;2022-10-03T13:10:25;19.30;99.90
11615;DHT22;5863;52.832;4.758;2022-10-03T13:13:05;19.40;99.90
11615;DHT22;5863;52.832;4.758;2022-10-03T13:15:48;19.40;99.90
11615;DHT22;5863;52.832;4.758;2022-10-03T13:18:34;19.40;99.90
11615;DHT22;5863;52.832;4.758;2022-10-03T13:21:06;19.50;99.90
11615;DHT22;5863;52.832;4.758;2022-10-03T13:23:42;19.40;99.90
11615;DHT22;5863;52.832;4.758;2022-10-03T13:26:15;19.40;99.90
11615;DHT22;5863;52.832;4.758;2022-10-03T13:29:18;19.40;99.90
11615;DHT22;5863;52.832;4.758;2022-10-03T13:35:19;19.30;99.90
11615;DHT22;5863;52.832;4.758;2022-10-03T13:38:19;19.20;99.90
11615;DHT22;5863;52.832;4.758;2022-10-03T13:40:54;19.20;99.90
11615;DHT22;5863;52.832;4.758;2022-10-03T13:43:28;19.20;99.90
11615;DHT22;5863;52.832;4.758;2022-10-03T13:46:05;19.10;99.90
11615;DHT22;5863;52.832;4.758;2022-10-03T13:48:38;19.20;99.90
11615;DHT22;5863;52.832;4.758;2022-10-03T13:51:13;19.20;99.90
11615;DHT22;5863;52.832;4.758;2022-10-03T13:53:54;19.20;99.90
11615;DHT22;5863;52.832;4.758;2022-10-03T13:56:40;19.20;99.90
11615;DHT22;5863;52.832;4.758;2022-10-03T14:02:09;19.20;99.90
11615;DHT22;5863;52.832;4.758;2022-10-03T14:05:00;19.10;99.90
11615;DHT22;5863;52.832;4.758;2022-10-03T14:07:41;19.00;99.90
11615;DHT22;5863;52.832;4.758;2022-10-03T14:10:26;19.00;99.90
11615;DHT22;5863;52.832;4.758;2022-10-03T14:13:10;18.90;99.90
11615;DHT22;5863;52.832;4.758;2022-10-03T14:15:47;18.90;99.90
11615;DHT22;5863;52.832;4.758;2022-10-03T14:18:29;18.80;99.90
11615;DHT22;5863;52.832;4.758;2022-10-03T14:21:25;18.80;99.90
11615;DHT22;5863;52.832;4.758;2022-10-03T14:24:01;18.70;99.90
11615;DHT22;5863;52.832;4.758;2022-10-03T14:26:36;18.70;99.90
11615;DHT22;5863;52.832;4.758;2022-10-03T14:29:07;18.70;99.90
11615;DHT22;5863;52.832;4.758;2022-10-03T14:31:43;18.70;99.90
11615;DHT22;5863;52.832;4.758;2022-10-03T14:34:19;18.60;99.90
11615;DHT22;5863;52.832;4.758;2022-10-03T14:36:52;18.60;99.90
11615;DHT22;5863;52.832;4.758;2022-10-03T14:39:31;18.50;99.90
11615;DHT22;5863;52.832;4.758;2022-10-03T14:42:26;18.50;99.90
11615;DHT22;5863;52.832;4.758;2022-10-03T14:45:00;18.50;99.90
11615;DHT22;5863;52.832;4.758;2022-10-03T14:47:34;18.50;99.90
11615;DHT22;5863;52.832;4.758;2022-10-03T14:50:03;18.40;99.90
11615;DHT22;5863;52.832;4.758;2022-10-03T14:52:38;18.40;99.90
11615;DHT22;5863;52.832;4.758;2022-10-03T14:55:12;18.30;99.90
11615;DHT22;5863;52.832;4.758;2022-10-03T14:57:44;18.30;99.90
11615;DHT22;5863;52.832;4.758;2022-10-03T15:00:24;18.20;99.90
11615;DHT22;5863;52.832;4.758;2022-10-03T15:02:51;18.20;99.90
11615;DHT22;5863;52.832;4.758;2022-10-03T15:05:21;18.20;99.90
11615;DHT22;5863;52.832;4.758;2022-10-03T15:07:49;18.30;99.90
11615;DHT22;5863;52.832;4.758;2022-10-03T15:10:20;18.30;99.90
11615;DHT22;5863;52.832;4.758;2022-10-03T15:12:52;18.30;99.90
11615;DHT22;5863;52.832;4.758;2022-10-03T15:15:24;18.20;99.90
11615;DHT22;5863;52.832;4.758;2022-10-03T15:17:55;18.20;99.90
11615;DHT22;5863;52.832;4.758;2022-10-03T15:20:27;18.20;99.90
11615;DHT22;5863;52.832;4.758;2022-10-03T15:22:58;18.20;99.90
11615;DHT22;5863;52.832;4.758;2022-10-03T15:25:27;18.10;99.90
11615;DHT22;5863;52.832;4.758;2022-10-03T15:28:02;18.10;99.90
11615;DHT22;5863;52.832;4.758;2022-10-03T15:30:32;18.10;99.90
11615;DHT22;5863;52.832;4.758;2022-10-03T15:33:05;18.10;99.90
11615;DHT22;5863;52.832;4.758;2022-10-03T15:35:36;18.00;99.90
11615;DHT22;5863;52.832;4.758;2022-10-03T15:38:11;18.00;99.90
11615;DHT22;5863;52.832;4.758;2022-10-03T15:40:41;18.00;99.90
11615;DHT22;5863;52.832;4.758;2022-10-03T15:43:25;18.00;99.90
11615;DHT22;5863;52.832;4.758;2022-10-03T15:45:54;17.90;99.90
11615;DHT22;5863;52.832;4.758;2022-10-03T15:48:22;17.80;99.90
11615;DHT22;5863;52.832;4.758;2022-10-03T15:50:52;17.80;99.90
11615;DHT22;5863;52.832;4.758;2022-10-03T15:53:23;17.80;99.90
11615;DHT22;5863;52.832;4.758;2022-10-03T15:55:53;17.80;99.90
11615;DHT22;5863;52.832;4.758;2022-10-03T15:58:25;17.70;99.90
11615;DHT22;5863;52.832;4.758;2022-10-03T16:01:00;17.60;99.90
11615;DHT22;5863;52.832;4.758;2022-10-03T16:03:32;17.60;99.90
11615;DHT22;5863;52.832;4.758;2022-10-03T16:06:07;17.50;99.90
11615;DHT22;5863;52.832;4.758;2022-10-03T16:08:44;17.40;99.90
11615;DHT22;5863;52.832;4.758;2022-10-03T16:11:19;17.40;99.90
11615;DHT22;5863;52.832;4.758;2022-10-03T16:13:58;17.30;99.90
11615;DHT22;5863;52.832;4.758;2022-10-03T16:16:35;17.30;99.90
11615;DHT22;5863;52.832;4.758;2022-10-03T16:19:30;17.20;99.90
11615;DHT22;5863;52.832;4.758;2022-10-03T16:22:11;17.10;99.90
11615;DHT22;5863;52.832;4.758;2022-10-03T16:24:42;17.10;99.90
11615;DHT22;5863;52.832;4.758;2022-10-03T16:27:14;17.00;99.90
11615;DHT22;5863;52.832;4.758;2022-10-03T16:29:46;17.00;99.90
11615;DHT22;5863;52.832;4.758;2022-10-03T16:32:19;17.00;99.90
11615;DHT22;5863;52.832;4.758;2022-10-03T16:34:48;16.90;99.90
11615;DHT22;5863;52.832;4.758;2022-10-03T16:37:20;16.90;99.90
11615;DHT22;5863;52.832;4.758;2022-10-03T16:39:54;16.80;99.90
11615;DHT22;5863;52.832;4.758;2022-10-03T16:42:24;16.80;99.90
11615;DHT22;5863;52.832;4.758;2022-10-03T16:44:54;16.80;99.90
11615;DHT22;5863;52.832;4.758;2022-10-03T16:47:33;16.70;99.90
11615;DHT22;5863;52.832;4.758;2022-10-03T16:50:03;16.70;99.90
11615;DHT22;5863;52.832;4.758;2022-10-03T16:52:51;16.70;99.90
11615;DHT22;5863;52.832;4.758;2022-10-03T16:55:23;16.60;99.90
11615;DHT22;5863;52.832;4.758;2022-10-03T16:57:55;16.50;99.90
11615;DHT22;5863;52.832;4.758;2022-10-03T17:00:25;16.50;99.90
11615;DHT22;5863;52.832;4.758;2022-10-03T17:02:55;16.40;99.90
11615;DHT22;5863;52.832;4.758;2022-10-03T17:05:22;16.40;99.90
11615;DHT22;5863;52.832;4.758;2022-10-03T17:07:56;16.40;99.90
11615;DHT22;5863;52.832;4.758;2022-10-03T17:10:34;16.30;99.90
11615;DHT22;5863;52.832;4.758;2022-10-03T17:13:05;16.30;99.90
11615;DHT22;5863;52.832;4.758;2022-10-03T17:15:44;16.30;99.90
11615;DHT22;5863;52.832;4.758;2022-10-03T17:18:19;16.20;99.90
11615;DHT22;5863;52.832;4.758;2022-10-03T17:20:50;16.20;99.90
11615;DHT22;5863;52.832;4.758;2022-10-03T17:23:27;16.10;99.90
11615;DHT22;5863;52.832;4.758;2022-10-03T17:26:04;16.00;99.90
11615;DHT22;5863;52.832;4.758;2022-10-03T17:28:41;16.00;99.90
11615;DHT22;5863;52.832;4.758;2022-10-03T17:31:21;15.90;99.90
11615;DHT22;5863;52.832;4.758;2022-10-03T17:33:51;15.80;99.90
11615;DHT22;5863;52.832;4.758;2022-10-03T17:36:51;15.80;99.90
11615;DHT22;5863;52.832;4.758;2022-10-03T17:39:33;15.80;99.90
11615;DHT22;5863;52.832;4.758;2022-10-03T17:42:10;15.70;99.90
11615;DHT22;5863;52.832;4.758;2022-10-03T17:44:49;15.70;99.90
11615;DHT22;5863;52.832;4.758;2022-10-03T17:47:22;15.70;99.90
11615;DHT22;5863;52.832;4.758;2022-10-03T17:49:56;15.70;99.90
11615;DHT22;5863;52.832;4.758;2022-10-03T17:52:25;15.70;99.90
11615;DHT22;5863;52.832;4.758;2022-10-03T17:54:55;15.70;99.90
11615;DHT22;5863;52.832;4.758;2022-10-03T17:57:26;15.70;99.90
11615;DHT22;5863;52.832;4.758;2022-10-03T17:59:58;15.70;99.90
11615;DHT22;5863;52.832;4.758;2022-10-03T18:02:34;15.60;99.90
11615;DHT22;5863;52.832;4.758;2022-10-03T18:05:11;15.60;99.90
11615;DHT22;5863;52.832;4.758;2022-10-03T18:07:39;15.50;99.90
11615;DHT22;5863;52.832;4.758;2022-10-03T18:10:18;15.50;99.90
11615;DHT22;5863;52.832;4.758;2022-10-03T18:12:46;15.40;99.90
11615;DHT22;5863;52.832;4.758;2022-10-03T18:15:36;15.40;99.90
11615;DHT22;5863;52.832;4.758;2022-10-03T18:21:16;15.30;99.90
11615;DHT22;5863;52.832;4.758;2022-10-03T18:23:53;15.30;99.90
11615;DHT22;5863;52.832;4.758;2022-10-03T18:26:28;15.30;99.90
11615;DHT22;5863;52.832;4.758;2022-10-03T18:29:05;15.30;99.90
11615;DHT22;5863;52.832;4.758;2022-10-03T18:31:37;15.40;99.90
11615;DHT22;5863;52.832;4.758;2022-10-03T18:34:17;15.30;99.90
11615;DHT22;5863;52.832;4.758;2022-10-03T18:36:47;15.30;99.90
11615;DHT22;5863;52.832;4.758;2022-10-03T18:39:19;15.30;99.90
11615;DHT22;5863;52.832;4.758;2022-10-03T18:41:51;15.30;99.90
11615;DHT22;5863;52.832;4.758;2022-10-03T18:44:22;15.20;99.90
11615;DHT22;5863;52.832;4.758;2022-10-03T18:46:57;15.20;99.90
11615;DHT22;5863;52.832;4.758;2022-10-03T18:49:28;15.20;99.90
11615;DHT22;5863;52.832;4.758;2022-10-03T18:52:04;15.20;99.90
11615;DHT22;5863;52.832;4.758;2022-10-03T18:54:45;15.20;99.90
11615;DHT22;5863;52.832;4.758;2022-10-03T18:57:17;15.20;99.90
11615;DHT22;5863;52.832;4.758;2022-10-03T18:59:50;15.20;99.90
11615;DHT22;5863;52.832;4.758;2022-10-03T19:02:24;15.20;99.90
11615;DHT22;5863;52.832;4.758;2022-10-03T19:04:55;15.20;99.90
11615;DHT22;5863;52.832;4.758;2022-10-03T19:07:23;15.10;99.90
11615;DHT22;5863;52.832;4.758;2022-10-03T19:13:13;15.20;99.90
11615;DHT22;5863;52.832;4.758;2022-10-03T19:16:02;15.10;99.90
11615;DHT22;5863;52.832;4.758;2022-10-03T19:18:39;15.10;99.90
11615;DHT22;5863;52.832;4.758;2022-10-03T19:21:11;15.10;99.90
11615;DHT22;5863;52.832;4.758;2022-10-03T19:23:44;15.00;99.90
11615;DHT22;5863;52.832;4.758;2022-10-03T19:26:20;14.90;99.90
11615;DHT22;5863;52.832;4.758;2022-10-03T19:28:52;14.90;99.90
11615;DHT22;5863;52.832;4.758;2022-10-03T19:31:23;14.80;99.90
11615;DHT22;5863;52.832;4.758;2022-10-03T19:33:56;14.80;99.90
11615;DHT22;5863;52.832;4.758;2022-10-03T19:36:28;14.80;99.90
11615;DHT22;5863;52.832;4.758;2022-10-03T19:38:56;14.80;99.90
11615;DHT22;5863;52.832;4.758;2022-10-03T19:41:27;14.70;99.90
11615;DHT22;5863;52.832;4.758;2022-10-03T19:44:01;14.70;99.90
11615;DHT22;5863;52.832;4.758;2022-10-03T19:46:46;14.70;99.90
11615;DHT22;5863;52.832;4.758;2022-10-03T19:49:22;14.70;99.90
11615;DHT22;5863;52.832;4.758;2022-10-03T19:51:51;14.70;99.90
11615;DHT22;5863;52.832;4.758;2022-10-03T19:54:29;14.70;99.90
11615;DHT22;5863;52.832;4.758;2022-10-03T19:56:57;14.70;99.90
11615;DHT22;5863;52.832;4.758;2022-10-03T19:59:42;14.70;99.90
11615;DHT22;5863;52.832;4.758;2022-10-03T20:02:10;14.70;99.90
11615;DHT22;5863;52.832;4.758;2022-10-03T20:04:37;14.70;99.90
11615;DHT22;5863;52.832;4.758;2022-10-03T20:07:10;14.70;99.90
11615;DHT22;5863;52.832;4.758;2022-10-03T20:09:39;14.70;99.90